Razende Bol — PFSD — position and weather

sailwx.info

Track history (hours):
 
Tides and Currents Weather Stations Pressure Air Temp Water Temp Dewpoint Dewpoint Depression Visibility Wind Speed Wind Dir Waves Ship Positions

Razende Bol

Last reported at 2017-Apr-22 10:17 UTC. Time now 2017-Apr-23 08:10 UTC.
Position N 51°54' E 004°14'.

Length 46 m; draft 2 m.

Type: Dredging. MMSI: 244963000.

Date/timePositionNaut miles runAvg speedWind from/ knotsBaromVisibWave heightAir tempDewpointWater temp
2017-Apr-22 10:17N 51°54' E 004°14'0 0.9
2017-Apr-22 09:59N 51°54' E 004°14'0 0.9
2017-Apr-22 09:29N 51°53' E 004°14'2 3.2
2017-Apr-22 09:01N 51°52' E 004°16'2 3.8
2017-Apr-22 08:29N 51°52' E 004°19'2 3.5
2017-Apr-22 08:00N 51°51' E 004°21'3 6.4
2017-Apr-22 07:30N 51°50' E 004°26'3 6.6
2017-Apr-22 07:00N 51°50' E 004°31'3 6.0
2017-Apr-22 06:30N 51°48' E 004°36'3 6.4
2017-Apr-22 06:00N 51°46' E 004°38'3 6.4
2017-Apr-22 05:31N 51°42' E 004°37'  
2017-Apr-15 21:43N 51°41' E 004°36'0 0.0
2017-Apr-15 03:28N 51°41' E 004°36'0 0.0
2017-Apr-15 02:22N 51°41' E 004°36'0 0.0
2017-Apr-15 01:00N 51°41' E 004°36'0 0.0
2017-Apr-14 20:49N 51°41' E 004°36'0 0.0
2017-Apr-14 20:15N 51°41' E 004°36'0 0.0
2017-Apr-14 19:49N 51°41' E 004°36'0 0.0
2017-Apr-14 19:21N 51°41' E 004°36'0 0.0
2017-Apr-14 18:54N 51°41' E 004°36'0 0.0
2017-Apr-14 14:16N 51°41' E 004°36'0 0.0
2017-Apr-14 11:09N 51°41' E 004°36'0 0.0
2017-Apr-14 10:48N 51°41' E 004°36'0 0.0
2017-Apr-14 02:34N 51°41' E 004°36'0 0.0
2017-Apr-14 02:25N 51°41' E 004°36'0 0.0
2017-Apr-14 01:43N 51°41' E 004°36'0 0.0
2017-Apr-14 00:16N 51°41' E 004°36'0 0.0
2017-Apr-14 00:00N 51°41' E 004°36'0 0.0
2017-Apr-13 23:27N 51°41' E 004°36'  
Track history (hours):
 
Tides and Currents Weather Stations Pressure Air Temp Water Temp Dewpoint Dewpoint Depression Visibility Wind Speed Wind Dir Waves Ship Positions

Razende Bol

Last reported at 2017-Apr-22 10:17 UTC. Time now 2017-Apr-23 08:10 UTC.
Position N 51°54' E 004°14'.

Length 46 m; draft 2 m.

Type: Dredging. MMSI: 244963000.

Date/timePositionNaut miles runAvg speedWind from/ knotsBaromVisibWave heightAir tempDewpointWater temp
2017-Apr-22 10:17N 51°54' E 004°14'0 0.9
2017-Apr-22 09:59N 51°54' E 004°14'0 0.9
2017-Apr-22 09:29N 51°53' E 004°14'2 3.2
2017-Apr-22 09:01N 51°52' E 004°16'2 3.8
2017-Apr-22 08:29N 51°52' E 004°19'2 3.5
2017-Apr-22 08:00N 51°51' E 004°21'3 6.4
2017-Apr-22 07:30N 51°50' E 004°26'3 6.6
2017-Apr-22 07:00N 51°50' E 004°31'3 6.0
2017-Apr-22 06:30N 51°48' E 004°36'3 6.4
2017-Apr-22 06:00N 51°46' E 004°38'3 6.4
2017-Apr-22 05:31N 51°42' E 004°37'  
2017-Apr-15 21:43N 51°41' E 004°36'0 0.0
2017-Apr-15 03:28N 51°41' E 004°36'0 0.0
2017-Apr-15 02:22N 51°41' E 004°36'0 0.0
2017-Apr-15 01:00N 51°41' E 004°36'0 0.0
2017-Apr-14 20:49N 51°41' E 004°36'0 0.0
2017-Apr-14 20:15N 51°41' E 004°36'0 0.0
2017-Apr-14 19:49N 51°41' E 004°36'0 0.0
2017-Apr-14 19:21N 51°41' E 004°36'0 0.0
2017-Apr-14 18:54N 51°41' E 004°36'0 0.0
2017-Apr-14 14:16N 51°41' E 004°36'0 0.0
2017-Apr-14 11:09N 51°41' E 004°36'0 0.0
2017-Apr-14 10:48N 51°41' E 004°36'0 0.0
2017-Apr-14 02:34N 51°41' E 004°36'0 0.0
2017-Apr-14 02:25N 51°41' E 004°36'0 0.0
2017-Apr-14 01:43N 51°41' E 004°36'0 0.0
2017-Apr-14 00:16N 51°41' E 004°36'0 0.0
2017-Apr-14 00:00N 51°41' E 004°36'0 0.0
2017-Apr-13 23:27N 51°41' E 004°36'  

Dump ship's entire track history